Tiempo atmosférico en la estación meteorológica de Cañaveral, Cáceres (373 m.)



Fecha
DESCASC
Temp. máxima en grados centígrados (hora)
DESCASC
Temp. mínima en grados centígrados (hora)
DESCASC
Temp. media en grados centígrados
DESCASC
Racha de viento máxima en m/sg (hora)
DESCASC
Velocidad máxima media en intervalos de 10 minutos(hora)
DESCASC
Precipitaciones diarias en mm
DESCASC
Precipitaciones de 00:00 a 06:00 en mm
DESCASC
Precipitaciones de 06:00 a 12:00 en mm
DESCASC
Precipitaciones de 12:00 a 18:00 en mm
DESCASC
Precipitaciones de 18:00 a 24:00 en mm
DESCASC
22-08-2019 35.2 (17:50) 23 (07:10) 29.1 13.61 (02:40) 8.61 (02:40) 0 0 0 0 0
21-08-2019 34.5 (16:40) 22.8 (07:30) 28.6 16.11 (05:20) 10 (05:00) 0 0 0 0 0
20-08-2019 33.1 (16:50) 19.2 (08:10) 26.1 15.83 (08:50) 12.22 (08:50) 0 0 0 0 0
19-08-2019 32.2 (16:50) 15.1 (07:50) 23.7 10.28 (22:00) 7.22 (22:20) 0 0 0 0 0
18-08-2019 33.9 (18:10) 17.3 (00:00) 25.6 11.94 (20:50) 8.89 (20:50) 0 0 0 0 0
17-08-2019 38.1 (17:00) 20.7 (00:00) 29.4 10.56 (23:20) 6.94 (23:00) 0 0 0 0 0
16-08-2019 38.1 (18:10) 25 (00:00) 31.5 12.22 (05:20) 9.17 (05:10) 0 0 0 0 0
15-08-2019 37.5 (17:30) 24.4 (00:00) 30.9 13.33 (10:00) 9.72 (10:00) 0 0 0 0 0
14-08-2019 35.7 (18:30) 20.6 (00:00) 28.2 10 (04:00) 7.22 (01:50) 0 0 0 0 0
13-08-2019 32 (18:50) 19.2 (00:00) 25.6 11.11 (00:20) 8.61 (00:20) 0 0 0 0 0
12-08-2019 29 (18:20) 16.1 (00:00) 22.6 16.94 (05:40) 12.5 (08:20) 0 0 0 0 0
11-08-2019 28.1 (18:00) 15.6 (00:00) 21.9 14.72 (03:10) 10.28 (03:00) 0 0 0 0 0
10-08-2019 31.5 (17:50) 15 (00:00) 23.3 11.11 (22:50) 7.5 (22:50) 0 0 0 0 0
09-08-2019 25.4 (14:00) 19.1 (00:00) 22.3 12.22 (15:30) 8.33 (16:40) 1.8 0 0.2 1.6 0
08-08-2019 34.6 (16:50) 19 (00:00) 26.8 11.94 (19:00) 7.5 (19:20) 0 0 0 0 0
07-08-2019 29.1 (19:50) 19.7 (00:00) 24.4 7.5 (10:10) 5.83 (10:10) 1 0 0 1 0
06-08-2019 36.1 (18:10) 17.9 (00:00) 27 12.5 (00:40) 8.33 (00:40) 0 0 0 0 0
05-08-2019 36.4 (17:50) 15.5 (00:00) 26 10.28 (23:20) 7.5 (23:50) 0 0 0 0 0
04-08-2019 36.8 (16:20) 18.9 (00:00) 27.8 10.28 (18:10) 6.67 (20:50) 0 0 0 0 0
03-08-2019 36.7 (18:10) 19.5 (00:00) 28.1 8.61 (15:20) 5 (00:10) 0 0 0 0 0
02-08-2019 36.7 (18:10) 15.4 (00:00) 26.1 7.78 (17:00) 4.17 (01:40) 0 0 0 0 0
01-08-2019 36 (18:40) 18.7 (00:00) 27.4 10.28 (17:20) 6.94 (21:10) 0 0 0 0 0
31-07-2019 36.5 (18:10) 21.4 (00:00) 28.9 12.22 (01:00) 8.89 (01:00) 0 0 0 0 0
30-07-2019 30.9 (17:50) 16.1 (00:00) 23.5 18.89 (06:50) 14.44 (07:40) 0 0 0 0 0
29-07-2019 32.3 (16:20) 14.7 (00:00) 23.5 13.33 (23:59) 10 (23:59) 0 0 0 0 0
28-07-2019 33.2 (17:30) 19 (00:00) 26.1 11.11 (05:50) 8.06 (05:10) 0 0 0 0 0
27-07-2019 29.5 (18:10) 15.6 (00:00) 22.6 10.83 (01:10) 7.22 (00:50) 0.2 0 0.2 0 0
26-07-2019 31.1 (16:30) 16.7 (00:00) 23.9 15 (19:30) 8.89 (19:40) 0 0 0 0 0
25-07-2019 35.6 (16:10) 20.7 (00:00) 28.1 13.89 (22:50) 7.78 (22:50) 0 0 0 0 0
24-07-2019 39.4 (17:30) 24.2 (00:00) 31.8 12.22 (23:50) 8.33 (23:59) 0 0 0 0 0

Gráficas

Temp. máximas Temp. mínimas Temp. medias Precipitaciones Rachas de viento máximas Velocidades máximas media en intervalos de 10 minutos

Datos horarios

Fecha y hora oficial Temperatura (ºC) Velocidad del viento (km/h) Dirección del viento Racha (km/h) Dirección de racha Precipitación (mm) Presión (hPa) Tendencia (hPa) Humedad (%)
2019-08-22 23:00:00 30.3 14 Nordeste 22 Nordeste 0 -- -- 29
2019-08-22 22:00:00 30.6 12 Nordeste 17 Nordeste 0 -- -- 29
2019-08-22 21:00:00 32.2 11 Nordeste 22 Este 0 -- -- 27
2019-08-22 20:00:00 34 11 Este 25 Este 0 -- -- 24
2019-08-22 19:00:00 34.7 13 Este 44 Este 0 -- -- 23
2019-08-22 18:00:00 35.1 10 Este 30 Nordeste 0 -- -- 22
2019-08-22 17:00:00 35 9 Este 27 Este 0 -- -- 22
2019-08-22 16:00:00 34.7 12 Sudeste 31 Sudeste 0 -- -- 23
2019-08-22 15:00:00 33.8 10 Sudeste 27 Sudeste 0 -- -- 26
2019-08-22 14:00:00 32.7 15 Este 28 Este 0 -- -- 30
2019-08-22 13:00:00 30.9 15 Este 33 Este 0 -- -- 35
2019-08-22 12:00:00 28.9 22 Este 37 Este 0 -- -- 39
2019-08-22 11:00:00 27.1 27 Este 43 Este 0 -- -- 44
2019-08-22 10:00:00 25.4 27 Este 42 Este 0 -- -- 49
2019-08-22 09:00:00 24.1 26 Este 39 Este 0 -- -- 56
2019-08-22 08:00:00 23 17 Este 31 Este 0 -- -- 61
2019-08-22 07:00:00 23.1 19 Este 36 Este 0 -- -- 62
2019-08-22 06:00:00 23.2 22 Este 35 Este 0 -- -- 62
2019-08-22 05:00:00 23.4 20 Este 40 Este 0 -- -- 62
2019-08-22 04:00:00 24 29 Este 41 Este 0 -- -- 60
2019-08-22 03:00:00 24.9 23 Este 49 Este 0 -- -- 55
2019-08-22 02:00:00 26.6 13 Nordeste 20 Este 0 -- -- 39
2019-08-22 01:00:00 27.2 10 Nordeste 16 Nordeste 0 -- -- 35
2019-08-22 00:00:00 27 12 Nordeste 19 Este 0 -- -- 27
2019-08-21 23:00:00 27.5 8 Nordeste 15 Norte 0 -- -- 26
2019-08-21 22:00:00 28.3 13 Norte 15 Norte 0 -- -- 26
2019-08-21 21:00:00 30.5 12 Norte 18 Norte 0 -- -- 25
2019-08-21 20:00:00 32.6 14 Norte 22 Norte 0 -- -- 26
2019-08-21 19:00:00 33 14 Noroeste 22 Norte 0 -- -- 26
2019-08-21 18:00:00 33.9 10 Norte 22 Este 0 -- -- 27
2019-08-21 17:00:00 33.8 15 Norte 23 Norte 0 -- -- 28
2019-08-21 16:00:00 33.2 6 Sudeste 19 Sudeste 0 -- -- 28
2019-08-21 15:00:00 32.2 6 Sudoeste 51 Este 0 -- -- 33
2019-08-21 14:00:00 30.4 11 Nordeste 32 Este 0 -- -- 40
2019-08-21 13:00:00 29.4 16 Este 30 Este 0 -- -- 44
2019-08-21 12:00:00 27.1 18 Este 36 Este 0 -- -- 51
2019-08-21 11:00:00 26.4 19 Este 39 Este 0 -- -- 53
2019-08-21 10:00:00 24.9 24 Este 43 Este 0 -- -- 57
2019-08-21 09:00:00 23.9 30 Este 44 Este 0 -- -- 59
2019-08-21 08:00:00 22.8 25 Este 44 Este 0 -- -- 64
2019-08-21 07:00:00 22.9 26 Este 51 Este 0 -- -- 62
2019-08-21 06:00:00 23.2 32 Este 58 Este 0 -- -- 60
2019-08-21 05:00:00 23.9 36 Este 54 Este 0 -- -- 57
2019-08-21 04:00:00 24.8 28 Este 48 Este 0 -- -- 53
2019-08-21 03:00:00 25.7 24 Nordeste 34 Nordeste 0 -- -- 43
2019-08-21 02:00:00 25.5 16 Nordeste 40 Norte 0 -- -- 37
2019-08-21 01:00:00 26 30 Norte 43 Norte 0 -- -- 33
2019-08-21 00:00:00 26.7 25 Norte 36 Norte 0 -- -- 30
2019-08-20 23:00:00 27.8 23 Norte 34 Norte 0 -- -- 30
2019-08-20 22:00:00 27.5 13 Norte 17 Norte 0 -- -- 28
2019-08-20 21:00:00 30.2 10 Noroeste 20 Noroeste 0 -- -- 27
2019-08-20 20:00:00 32.2 11 Norte 21 Noroeste 0 -- -- 25
2019-08-20 19:00:00 32.9 12 Noroeste 23 Norte 0 -- -- 25
2019-08-20 18:00:00 32.8 12 Norte 26 Norte 0 -- -- 25
2019-08-20 17:00:00 32.9 18 Norte 31 Norte 0 -- -- 26
2019-08-20 16:00:00 32 14 Noroeste 26 Norte 0 -- -- 28
2019-08-20 15:00:00 31.3 9 Nordeste 29 Norte 0 -- -- 31
2019-08-20 14:00:00 29.7 19 Norte 30 Norte 0 -- -- 35
2019-08-20 13:00:00 27.8 18 Norte 32 Norte 0 -- -- 39
2019-08-20 12:00:00 25.6 21 Norte 33 Norte 0 -- -- 44
2019-08-20 11:00:00 22.7 25 Norte 41 Norte 0 -- -- 50
2019-08-20 10:00:00 20.9 16 Norte 57 Norte 0 -- -- 55
2019-08-20 09:00:00 19.5 43 Norte 57 Norte 0 -- -- 58
2019-08-20 08:00:00 19.3 36 Norte 51 Norte 0 -- -- 59
2019-08-20 07:00:00 20.1 37 Norte 48 Norte 0 -- -- 57
2019-08-20 06:00:00 21.3 36 Norte 46 Norte 0 -- -- 53
2019-08-20 05:00:00 19.6 8 Oeste 21 Oeste 0 -- -- 56
2019-08-20 04:00:00 20.1 9 Sudoeste 30 Norte 0 -- -- 54
2019-08-20 03:00:00 22.1 19 Noroeste 32 Norte 0 -- -- 49
2019-08-20 02:00:00 21.6 10 Oeste 32 Noroeste 0 -- -- 50
2019-08-20 01:00:00 22.5 19 Oeste 32 Sudoeste 0 -- -- 46
2019-08-20 00:00:00 24 23 Oeste 34 Oeste 0 -- -- 43
2019-08-19 23:00:00 25.1 24 Oeste 36 Oeste 0 -- -- 39
2019-08-19 22:00:00 26.4 25 Oeste 37 Oeste 0 -- -- 32
2019-08-19 21:00:00 28.8 18 Oeste 30 Oeste 0 -- -- 24
2019-08-19 20:00:00 29.5 14 Noroeste 24 Oeste 0 -- -- 20
2019-08-19 19:00:00 30.1 13 Oeste 23 Oeste 0 -- -- 21
2019-08-19 18:00:00 30.8 18 Oeste 27 Oeste 0 -- -- 21
2019-08-19 17:00:00 31.8 8 Noroeste 31 Sudoeste 0 -- -- 20
2019-08-19 16:00:00 31.7 11 Oeste 29 Oeste 0 -- -- 26
2019-08-19 15:00:00 31.4 16 Oeste 32 Oeste 0 -- -- 30
2019-08-19 14:00:00 29.4 13 Sur 28 Sudoeste 0 -- -- 37
2019-08-19 13:00:00 27.8 10 Sudoeste 20 Sudoeste 0 -- -- 42
2019-08-19 12:00:00 25.8 7 Sudoeste 18 Sudoeste 0 -- -- 47
2019-08-19 11:00:00 22.2 6 Oeste 12 Sudoeste 0 -- -- 57
2019-08-19 10:00:00 19.5 4 Sudoeste 8 Oeste 0 -- -- 65
2019-08-19 09:00:00 16.7 4 Sudoeste 6 Sudoeste 0 -- -- 74
2019-08-19 08:00:00 15.1 3 Sur 8 Sur 0 -- -- 78
2019-08-19 07:00:00 15.7 5 Sur 9 Sur 0 -- -- 76
2019-08-19 06:00:00 16.7 5 Sudeste 10 Sur 0 -- -- 75
2019-08-19 05:00:00 17.8 4 Sudoeste 18 Sudoeste 0 -- -- 72
2019-08-19 04:00:00 18.8 9 Sudoeste 17 Oeste 0 -- -- 72
2019-08-19 03:00:00 20.4 3 Sudoeste 23 Sudoeste 0 -- -- 68
2019-08-19 02:00:00 23.1 10 Noroeste 31 Noroeste 0 -- -- 59
2019-08-19 01:00:00 23.8 12 Noroeste 30 Sudoeste 0 -- -- 57
2019-08-19 00:00:00 23.6 23 Oeste 35 Oeste 0 -- -- 61
2019-08-18 23:00:00 25 26 Oeste 37 Oeste 0 -- -- 57
2019-08-18 22:00:00 26.9 22 Oeste 43 Oeste 0 -- -- 50
2019-08-18 21:00:00 29.3 27 Oeste 43 Oeste 0 -- -- 43
2019-08-18 20:00:00 32.3 23 Oeste 39 Oeste 0 -- -- 35
2019-08-18 19:00:00 33.6 14 Oeste 39 Sudoeste 0 -- -- 32
2019-08-18 18:00:00 33.3 22 Sudoeste 38 Sudoeste 0 -- -- 32
2019-08-18 17:00:00 33.2 21 Oeste 42 Sudoeste 0 -- -- 30
2019-08-18 16:00:00 32.5 20 Oeste 32 Oeste 0 -- -- 27
2019-08-18 15:00:00 31.9 18 Oeste 33 Oeste 0 -- -- 29
2019-08-18 14:00:00 30.4 17 Oeste 29 Oeste 0 -- -- 29
2019-08-18 13:00:00 29.2 15 Oeste 27 Oeste 0 -- -- 36
2019-08-18 12:00:00 26.8 17 Oeste 27 Oeste 0 -- -- 43
2019-08-18 11:00:00 25.4 7 Sudoeste 14 Sudoeste 0 -- -- 48
2019-08-18 10:00:00 22.1 6 Sudoeste 12 Sudoeste 0 -- -- 58
2019-08-18 09:00:00 19 4 Sudoeste 9 Sudoeste 0 -- -- 69
2019-08-18 08:00:00 17.3 3 Sudoeste 12 Sudoeste 0 -- -- 73
2019-08-18 07:00:00 17.9 4 Sudeste 9 Sudoeste 0 -- -- 71
2019-08-18 06:00:00 18.5 6 Oeste 9 Oeste 0 -- -- 68
2019-08-18 05:00:00 19.7 5 Sur 13 Sudoeste 0 -- -- 64
2019-08-18 04:00:00 20.9 10 Sudoeste 22 Sudoeste 0 -- -- 60
2019-08-18 03:00:00 22.7 16 Oeste 26 Sudoeste 0 -- -- 56
2019-08-18 02:00:00 24.4 11 Sudoeste 18 Oeste 0 -- -- 49
2019-08-18 01:00:00 27 11 Sudoeste 36 Oeste 0 -- -- 40
2019-08-18 00:00:00 28.6 22 Oeste 38 Oeste 0 -- -- 39
2019-08-17 23:00:00 30.3 25 Oeste 37 Oeste 0 -- -- 31
2019-08-17 22:00:00 32.2 6 Noroeste 10 Oeste 0 -- -- 20
2019-08-17 21:00:00 34.9 7 Sur 21 Sudoeste 0 -- -- 16
2019-08-17 20:00:00 36.7 12 Sudoeste 22 Sudoeste 0 -- -- 16
2019-08-17 19:00:00 37.5 12 Sudoeste 26 Sudoeste 0 -- -- 15
2019-08-17 18:00:00 38.1 15 Sudoeste 26 Sudoeste 0 -- -- 14
2019-08-17 17:00:00 38.1 13 Oeste 27 Oeste 0 -- -- 15
2019-08-17 16:00:00 37.1 18 Oeste 33 Oeste 0 -- -- 17
2019-08-17 15:00:00 35.3 8 Sudeste 28 Sudeste 0 -- -- 22
2019-08-17 14:00:00 34.6 10 Sudoeste 19 Sudoeste 0 -- -- 24
2019-08-17 13:00:00 32.4 9 Sur 18 Sur 0 -- -- 29
2019-08-17 12:00:00 30.6 8 Sudoeste 15 Sudoeste 0 -- -- 31
2019-08-17 11:00:00 28.2 5 Sudeste 10 Sur 0 -- -- 38
2019-08-17 10:00:00 25 4 Sudeste 9 Sudeste 0 -- -- 43
2019-08-17 09:00:00 22.1 0 Calma 10 Oeste 0 -- -- 48
2019-08-17 08:00:00 21.1 4 Oeste 10 Noroeste 0 -- -- 51
2019-08-17 07:00:00 23.5 8 Noroeste 25 Norte 0 -- -- 45
2019-08-17 06:00:00 24.4 7 Noroeste 22 Nordeste 0 -- -- 42
2019-08-17 05:00:00 25.6 12 Nordeste 22 Norte 0 -- -- 39
2019-08-17 04:00:00 24.7 4 Sur 26 Noroeste 0 -- -- 42
2019-08-17 03:00:00 27.2 14 Norte 23 Noroeste 0 -- -- 38
2019-08-17 02:00:00 26.6 4 Sudoeste 16 Oeste 0 -- -- 40
2019-08-17 01:00:00 28.2 8 Oeste 32 Norte 0 -- -- 39
2019-08-17 00:00:00 29 24 Norte 35 Noroeste 0 -- -- 40
2019-08-16 23:00:00 31.2 25 Oeste 36 Oeste 0 -- -- 29
2019-08-16 22:00:00 32.4 21 Oeste 33 Oeste 0 -- -- 30
2019-08-16 21:00:00 35.5 10 Oeste 23 Oeste 0 -- -- 20
2019-08-16 20:00:00 37.2 13 Sudoeste 35 Oeste 0 -- -- 18
2019-08-16 19:00:00 37.7 18 Oeste 34 Oeste 0 -- -- 18
2019-08-16 18:00:00 38 15 Oeste 32 Sudoeste 0 -- -- 19
2019-08-16 17:00:00 37.7 17 Sudoeste 28 Oeste 0 -- -- 19
2019-08-16 16:00:00 37.2 17 Sudoeste 32 Sudoeste 0 -- -- 21
2019-08-16 15:00:00 36.7 17 Sudoeste 30 Oeste 0 -- -- 25
2019-08-16 14:00:00 35.5 10 Sudoeste 20 Sur 0 -- -- 27
2019-08-16 13:00:00 33.7 13 Sudeste 23 Sudeste 0 -- -- 29
2019-08-16 12:00:00 32 10 Nordeste 23 Este 0 -- -- 32
2019-08-16 11:00:00 30.1 8 Nordeste 24 Nordeste 0 -- -- 35
2019-08-16 10:00:00 28.1 15 Nordeste 24 Nordeste 0 -- -- 38
2019-08-16 09:00:00 26.2 14 Norte 26 Norte 0 -- -- 44
2019-08-16 08:00:00 25.7 18 Norte 29 Norte 0 -- -- 44
2019-08-16 07:00:00 25.3 17 Norte 39 Norte 0 -- -- 48
2019-08-16 06:00:00 26.3 31 Norte 44 Noroeste 0 -- -- 46
2019-08-16 05:00:00 26.8 29 Norte 41 Norte 0 -- -- 44
2019-08-16 04:00:00 27.3 28 Norte 43 Norte 0 -- -- 43
2019-08-16 03:00:00 27.9 28 Norte 39 Norte 0 -- -- 42
2019-08-16 02:00:00 28.3 27 Norte 42 Norte 0 -- -- 42
2019-08-16 01:00:00 29.1 32 Norte 41 Norte 0 -- -- 39
2019-08-16 00:00:00 30.2 29 Norte 41 Norte 0 -- -- 35
2019-08-15 23:00:00 31.7 21 Norte 28 Noroeste 0 -- -- 27
2019-08-15 22:00:00 32.4 19 Noroeste 25 Norte 0 -- -- 25
2019-08-15 21:00:00 34.5 10 Norte 19 Noroeste 0 -- -- 21
2019-08-15 20:00:00 36.6 9 Noroeste 27 Noroeste 0 -- -- 19
2019-08-15 19:00:00 36.9 6 Norte 28 Norte 0 -- -- 19
2019-08-15 18:00:00 37.3 12 Noroeste 26 Norte 0 -- -- 19
2019-08-15 17:00:00 36.7 10 Norte 29 Noroeste 0 -- -- 22
2019-08-15 16:00:00 36 13 Nordeste 31 Noroeste 0 -- -- 23
2019-08-15 15:00:00 35.6 13 Norte 30 Noroeste 0 -- -- 21
2019-08-15 14:00:00 34 9 Norte 22 Norte 0 -- -- 26
2019-08-15 13:00:00 32.7 13 Norte 29 Norte 0 -- -- 31
2019-08-15 12:00:00 30.5 24 Norte 37 Norte 0 -- -- 37
2019-08-15 11:00:00 28.4 29 Norte 45 Norte 0 -- -- 43
2019-08-15 10:00:00 26.2 35 Norte 48 Norte 0 -- -- 49
2019-08-15 09:00:00 25.2 33 Norte 45 Norte 0 -- -- 50
2019-08-15 08:00:00 24.6 29 Norte 41 Norte 0 -- -- 53
2019-08-15 07:00:00 24.5 25 Norte 43 Norte 0 -- -- 53
2019-08-15 06:00:00 25.1 31 Norte 44 Norte 0 -- -- 53
2019-08-15 05:00:00 26 32 Norte 46 Norte 0 -- -- 50
2019-08-15 04:00:00 26.5 30 Norte 39 Noroeste 0 -- -- 48
2019-08-15 03:00:00 27 27 Norte 38 Norte 0 -- -- 47
2019-08-15 02:00:00 27 29 Norte 39 Norte 0 -- -- 49
2019-08-15 01:00:00 28 25 Norte 37 Norte 0 -- -- 44
2019-08-15 00:00:00 29.3 21 Norte 32 Norte 0 -- -- 38
2019-08-14 23:00:00 29.2 7 Noroeste 8 Noroeste 0 -- -- 23
2019-08-14 22:00:00 30.7 4 Noroeste 12 Sudoeste 0 -- -- 21
2019-08-14 21:00:00 33.5 8 Oeste 21 Sudoeste 0 -- -- 19
2019-08-14 20:00:00 35.1 14 Sudoeste 22 Oeste 0 -- -- 18
2019-08-14 19:00:00 35.7 12 Noroeste 23 Norte 0 -- -- 18
2019-08-14 18:00:00 35 6 Sudeste 24 Norte 0 -- -- 19
2019-08-14 17:00:00 34.1 14 Nordeste 30 Nordeste 0 -- -- 19
2019-08-14 16:00:00 34.2 15 Norte 27 Norte 0 -- -- 18
2019-08-14 15:00:00 32.9 12 Nordeste 26 Norte 0 -- -- 18
2019-08-14 14:00:00 32.4 10 Nordeste 23 Norte 0 -- -- 18
2019-08-14 13:00:00 31.4 12 Este 22 Este 0 -- -- 18
2019-08-14 12:00:00 29.8 8 Este 21 Este 0 -- -- 20
2019-08-14 11:00:00 27.5 13 Norte 22 Norte 0 -- -- 23
2019-08-14 10:00:00 25.4 4 Nordeste 16 Nordeste 0 -- -- 25
2019-08-14 09:00:00 24.3 9 Nordeste 18 Nordeste 0 -- -- 25
2019-08-14 08:00:00 21.9 8 Nordeste 13 Nordeste 0 -- -- 29
2019-08-14 07:00:00 20.6 9 Nordeste 16 Nordeste 0 -- -- 31
2019-08-14 06:00:00 23 14 Nordeste 33 Norte 0 -- -- 28
2019-08-14 05:00:00 23.6 18 Norte 36 Norte 0 -- -- 27
2019-08-14 04:00:00 24 23 Norte 36 Norte 0 -- -- 26
2019-08-14 03:00:00 24.9 23 Norte 34 Norte 0 -- -- 25
2019-08-14 02:00:00 25.2 25 Norte 36 Norte 0 -- -- 25
2019-08-14 01:00:00 25.3 25 Norte 34 Norte 0 -- -- 25
2019-08-14 00:00:00 25.8 20 Norte 28 Norte 0 -- -- 24
2019-08-13 23:00:00 26.7 16 Norte 26 Norte 0 -- -- 23
2019-08-13 22:00:00 26 14 Noroeste 17 Norte 0 -- -- 24
2019-08-13 21:00:00 30 8 Norte 13 Norte 0 -- -- 20
2019-08-13 20:00:00 31.6 10 Norte 23 Norte 0 -- -- 17
2019-08-13 19:00:00 31.9 9 Norte 23 Noroeste 0 -- -- 17
2019-08-13 18:00:00 31.8 13 Norte 32 Norte 0 -- -- 18
2019-08-13 17:00:00 31.8 15 Norte 26 Norte 0 -- -- 15
2019-08-13 16:00:00 31 12 Noroeste 25 Noroeste 0 -- -- 20
2019-08-13 15:00:00 29.9 15 Norte 26 Nordeste 0 -- -- 23
2019-08-13 14:00:00 29.3 14 Nordeste 32 Norte 0 -- -- 24
2019-08-13 13:00:00 27.9 15 Nordeste 32 Nordeste 0 -- -- 27
2019-08-13 12:00:00 25.9 19 Nordeste 31 Nordeste 0 -- -- 31
2019-08-13 11:00:00 24.4 22 Nordeste 37 Nordeste 0 -- -- 33
2019-08-13 10:00:00 23.3 16 Nordeste 34 Nordeste 0 -- -- 35
2019-08-13 09:00:00 20.1 20 Nordeste 30 Norte 0 -- -- 39
2019-08-13 08:00:00 19.2 16 Nordeste 30 Norte 0 -- -- 38
2019-08-13 07:00:00 19.7 18 Norte 35 Nordeste 0 -- -- 36
2019-08-13 06:00:00 20.6 17 Nordeste 28 Nordeste 0 -- -- 33
2019-08-13 05:00:00 21.6 17 Norte 28 Norte 0 -- -- 30
2019-08-13 04:00:00 21.3 21 Norte 34 Norte 0 -- -- 30
2019-08-13 03:00:00 21.7 22 Norte 36 Norte 0 -- -- 29
2019-08-13 02:00:00 22.5 27 Norte 40 Norte 0 -- -- 28
2019-08-13 01:00:00 23 27 Norte 40 Norte 0 -- -- 26
2019-08-13 00:00:00 23.7 32 Norte 43 Norte 0 -- -- 25
2019-08-12 23:00:00 23.9 25 Norte 33 Norte 0 -- -- 25
2019-08-12 22:00:00 23.7 20 Norte 32 Norte 0 -- -- 25
2019-08-12 21:00:00 25.3 20 Norte 34 Norte 0 -- -- 24
2019-08-12 20:00:00 28.1 12 Nordeste 25 Norte 0 -- -- 20
2019-08-12 19:00:00 28.5 14 Norte 29 Norte 0 -- -- 20
2019-08-12 18:00:00 28.7 14 Norte 33 Norte 0 -- -- 21
2019-08-12 17:00:00 28.3 14 Norte 30 Norte 0 -- -- 24
2019-08-12 16:00:00 27.4 15 Noroeste 32 Norte 0 -- -- 25
2019-08-12 15:00:00 26.7 15 Norte 36 Nordeste 0 -- -- 28
2019-08-12 14:00:00 25.1 24 Norte 35 Norte 0 -- -- 31
2019-08-12 13:00:00 24 22 Norte 40 Norte 0 -- -- 32
2019-08-12 12:00:00 22.6 24 Norte 41 Norte 0 -- -- 37
2019-08-12 11:00:00 20.1 27 Norte 50 Norte 0 -- -- 45
2019-08-12 10:00:00 18.1 36 Norte 56 Norte 0 -- -- 50
2019-08-12 09:00:00 16.5 37 Norte 61 Norte 0 -- -- 52
2019-08-12 08:00:00 16.3 39 Norte 58 Norte 0 -- -- 51
2019-08-12 07:00:00 16.2 36 Norte 55 Norte 0 -- -- 52
2019-08-12 06:00:00 16.8 39 Norte 61 Noroeste 0 -- -- 51
2019-08-12 05:00:00 16.8 39 Norte 50 Norte 0 -- -- 54
2019-08-12 04:00:00 17.2 30 Norte 45 Norte 0 -- -- 54
2019-08-12 03:00:00 17.4 30 Norte 46 Norte 0 -- -- 53
2019-08-12 02:00:00 18.1 26 Norte 40 Norte 0 -- -- 51
2019-08-12 01:00:00 18.7 21 Noroeste 34 Noroeste 0 -- -- 50
2019-08-12 00:00:00 19.8 23 Noroeste 41 Noroeste 0 -- -- 44
2019-08-11 23:00:00 21.3 27 Noroeste 44 Noroeste 0 -- -- 38
2019-08-11 22:00:00 22.6 19 Noroeste 33 Noroeste 0 -- -- 33
2019-08-11 21:00:00 24.5 18 Noroeste 40 Noroeste 0 -- -- 30
2019-08-11 20:00:00 26.3 20 Oeste 35 Noroeste 0 -- -- 27
2019-08-11 19:00:00 26.3 23 Noroeste 43 Oeste 0 -- -- 26
2019-08-11 18:00:00 28.1 21 Oeste 43 Oeste 0 -- -- 25
2019-08-11 17:00:00 27 12 Noroeste 44 Oeste 0 -- -- 28
2019-08-11 16:00:00 26.7 18 Noroeste 38 Oeste 0 -- -- 28
2019-08-11 15:00:00 25.7 18 Norte 39 Norte 0 -- -- 30
2019-08-11 14:00:00 25.2 19 Oeste 37 Noroeste 0 -- -- 36
2019-08-11 13:00:00 24.7 16 Noroeste 36 Noroeste 0 -- -- 41
2019-08-11 12:00:00 22.8 13 Noroeste 25 Norte 0 -- -- 47
2019-08-11 11:00:00 21.5 13 Noroeste 26 Noroeste 0 -- -- 52
2019-08-11 10:00:00 20 5 Noroeste 20 Sudoeste 0 -- -- 57
2019-08-11 09:00:00 16.8 8 Sudoeste 15 Sudoeste 0 -- -- 70
2019-08-11 08:00:00 15.6 8 Sudoeste 30 Oeste 0 -- -- 73
2019-08-11 07:00:00 16.4 23 Oeste 35 Oeste 0 -- -- 70
2019-08-11 06:00:00 17.5 22 Oeste 36 Oeste 0 -- -- 64
2019-08-11 05:00:00 19.7 11 Oeste 37 Noroeste 0 -- -- 55
2019-08-11 04:00:00 21 24 Norte 53 Norte 0 -- -- 51
2019-08-11 03:00:00 21.2 37 Noroeste 50 Noroeste 0 -- -- 53
2019-08-11 02:00:00 21.7 26 Noroeste 46 Noroeste 0 -- -- 53
2019-08-11 01:00:00 22 14 Oeste 34 Sudoeste 0 -- -- 51
2019-08-11 00:00:00 23.1 14 Oeste 40 Oeste 0 -- -- 48
2019-08-10 23:00:00 25 26 Oeste 40 Oeste 0 -- -- 40
2019-08-10 22:00:00 27.4 18 Oeste 26 Oeste 0 -- -- 32
2019-08-10 21:00:00 28.4 11 Oeste 21 Oeste 0 -- -- 29
2019-08-10 20:00:00 29.1 9 Oeste 22 Noroeste 0 -- -- 27
2019-08-10 19:00:00 29.7 14 Oeste 26 Sudoeste 0 -- -- 27
2019-08-10 18:00:00 31.4 15 Sudoeste 26 Sudoeste 0 -- -- 22
2019-08-10 17:00:00 30.4 12 Sudoeste 26 Sudoeste 0 -- -- 27
2019-08-10 16:00:00 29.7 15 Sudoeste 31 Sudoeste 0 -- -- 31
2019-08-10 15:00:00 28.3 6 Noroeste 18 Nordeste 0 -- -- 36
2019-08-10 14:00:00 26.3 9 Nordeste 19 Norte 0 -- -- 41
2019-08-10 13:00:00 25 8 Nordeste 16 Nordeste 0 -- -- 45
2019-08-10 12:00:00 22.7 5 Este 13 Este 0 -- -- 53
2019-08-10 11:00:00 21.3 4 Oeste 10 Oeste 0 -- -- 62
2019-08-10 10:00:00 20.3 3 Sudoeste 8 Oeste 0 -- -- 67
2019-08-10 09:00:00 17.5 0 Calma 8 Oeste 0 -- -- 80
2019-08-10 08:00:00 16.1 0 Calma 9 Este 0 -- -- 81
2019-08-10 07:00:00 15 7 Sudeste 13 Oeste 0 -- -- 88
2019-08-10 06:00:00 16.8 5 Nordeste 18 Noroeste 0 -- -- 77
2019-08-10 05:00:00 16.9 9 Noroeste 20 Noroeste 0 -- -- 78
2019-08-10 04:00:00 17.2 3 Noroeste 9 Noroeste 0 -- -- 84
2019-08-10 03:00:00 17.7 0 Calma 10 Noroeste 0 -- -- 85
2019-08-10 02:00:00 18.2 5 Norte 23 Norte 0 -- -- 81
2019-08-10 01:00:00 18.5 18 Norte 28 Norte 0 -- -- 81
2019-08-10 00:00:00 19.2 11 Norte 20 Noroeste 0 -- -- 76
2019-08-09 23:00:00 19.6 4 Nordeste 11 Norte 0 -- -- 71
2019-08-09 22:00:00 19.1 5 Nordeste 19 Norte 0 -- -- 78
2019-08-09 21:00:00 20.8 11 Norte 16 Norte 0 -- -- 73
2019-08-09 20:00:00 23 6 Norte 22 Oeste 0 -- -- 62
2019-08-09 19:00:00 23.8 17 Oeste 26 Oeste 0 -- -- 57
2019-08-09 18:00:00 21.1 12 Oeste 31 Oeste 0 -- -- 71
2019-08-09 17:00:00 20.1 16 Oeste 42 Oeste 0 -- -- 74
2019-08-09 16:00:00 22.7 25 Oeste 44 Oeste 0.2 -- -- 64
2019-08-09 15:00:00 21.7 22 Oeste 36 Oeste 0 -- -- 80
2019-08-09 14:00:00 25.4 18 Oeste 24 Oeste 0 -- -- 71
2019-08-09 13:00:00 23.8 19 Oeste 29 Sudoeste 1.4 -- -- 81
2019-08-09 12:00:00 22.5 16 Sudoeste 27 Sudoeste 0.2 -- -- 86
2019-08-09 11:00:00 22.8 18 Sur 28 Sur 0 -- -- 79
2019-08-09 10:00:00 22.3 17 Sur 24 Sur 0 -- -- 80
2019-08-09 09:00:00 22 10 Sur 18 Sudoeste 0 -- -- 81
2019-08-09 08:00:00 21.4 8 Sur 16 Sur 0 -- -- 80
2019-08-09 07:00:00 21.2 12 Sur 18 Sur 0 -- -- 80
2019-08-09 06:00:00 21.5 9 Sur 20 Sudoeste 0 -- -- 79
2019-08-09 05:00:00 21.5 14 Oeste 27 Oeste 0 -- -- 79
2019-08-09 04:00:00 20.8 11 Oeste 30 Oeste 0 -- -- 82
2019-08-09 03:00:00 21.5 20 Oeste 36 Oeste 0 -- -- 78
2019-08-09 02:00:00 22.5 20 Oeste 36 Oeste 0 -- -- 75
2019-08-09 01:00:00 23.8 17 Oeste 31 Oeste 0 -- -- 68
2019-08-09 00:00:00 25.2 15 Oeste 30 Oeste 0 -- -- 59
2019-08-08 23:00:00 26.6 17 Oeste 29 Oeste 0 -- -- 52
2019-08-08 22:00:00 28 22 Oeste 33 Oeste 0 -- -- 48
2019-08-08 21:00:00 30.8 20 Oeste 39 Sudoeste 0 -- -- 41
2019-08-08 20:00:00 31.9 22 Oeste 40 Sudoeste 0 -- -- 37
2019-08-08 19:00:00 33.8 27 Sudoeste 43 Sudoeste 0 -- -- 35
2019-08-08 18:00:00 33.2 17 Sudoeste 37 Oeste 0 -- -- 37
2019-08-08 17:00:00 34.2 23 Sudoeste 41 Oeste 0 -- -- 36
2019-08-08 16:00:00 34.4 23 Sudoeste 36 Sudoeste 0 -- -- 36
2019-08-08 15:00:00 33.3 14 Sur 33 Sudoeste 0 -- -- 34
2019-08-08 14:00:00 31.8 16 Oeste 30 Sudoeste 0 -- -- 37
2019-08-08 13:00:00 29.6 10 Sudeste 22 Sur 0 -- -- 47
2019-08-08 12:00:00 27.5 8 Sur 20 Sudoeste 0 -- -- 56
2019-08-08 11:00:00 25.8 7 Oeste 14 Sudoeste 0 -- -- 60
2019-08-08 10:00:00 23.7 8 Oeste 14 Sudoeste 0 -- -- 68
2019-08-08 09:00:00 22.7 6 Sur 10 Sur 0 -- -- 63
2019-08-08 08:00:00 20.3 0 Calma 6 Nordeste 0 -- -- 69
2019-08-08 07:00:00 19.4 0 Calma 7 Sudoeste 0 -- -- 70
2019-08-08 06:00:00 19.8 4 Sur 10 Sudoeste 0 -- -- 68
2019-08-08 05:00:00 20.3 8 Oeste 12 Oeste 0 -- -- 66
2019-08-08 04:00:00 20.7 0 Calma 4 Sudoeste 0 -- -- 65
2019-08-08 03:00:00 21.5 2 Oeste 4 Este 0 -- -- 60
2019-08-08 02:00:00 21.3 3 Este 6 Este 0 -- -- 60
2019-08-08 01:00:00 21.8 5 Este 6 Este 0 -- -- 59
2019-08-08 00:00:00 22.4 3 Este 10 Oeste 0 -- -- 57
2019-08-07 23:00:00 23.8 8 Oeste 14 Oeste 0 -- -- 52
2019-08-07 22:00:00 24.4 9 Oeste 18 Oeste 0 -- -- 54
2019-08-07 21:00:00 26.7 14 Oeste 21 Oeste 0 -- -- 48
2019-08-07 20:00:00 27.9 11 Oeste 23 Oeste 0 -- -- 46
2019-08-07 19:00:00 27.9 9 Sudeste 21 Sudoeste 0 -- -- 45
2019-08-07 18:00:00 28.4 8 Sudoeste 22 Sudoeste 0 -- -- 46
2019-08-07 17:00:00 27.2 11 Sudoeste 19 Oeste 0 -- -- 48
2019-08-07 16:00:00 25 14 Sudoeste 22 Sudoeste 0 -- -- 59
2019-08-07 15:00:00 24.1 3 Sur 10 Sur 0 -- -- 60
2019-08-07 14:00:00 21.6 5 Este 17 Sudoeste 0.4 -- -- 79
2019-08-07 13:00:00 20.5 9 Sudoeste 22 Oeste 0.6 -- -- 84
2019-08-07 12:00:00 21.4 15 Oeste 23 Sudoeste 0 -- -- 73
2019-08-07 11:00:00 21.2 10 Oeste 27 Oeste 0 -- -- 74
2019-08-07 10:00:00 21 15 Sudoeste 25 Sudoeste 0 -- -- 72
2019-08-07 09:00:00 20.2 18 Sudoeste 22 Oeste 0 -- -- 75
2019-08-07 08:00:00 19.8 13 Sudoeste 22 Sudoeste 0 -- -- 77
2019-08-07 07:00:00 19.9 10 Sudoeste 24 Sudoeste 0 -- -- 75
2019-08-07 06:00:00 20.3 14 Sudoeste 21 Sudoeste 0 -- -- 72
2019-08-07 05:00:00 20.5 14 Sudoeste 19 Sudoeste 0 -- -- 71
2019-08-07 04:00:00 21 12 Sudoeste 23 Sudoeste 0 -- -- 69
2019-08-07 03:00:00 21.9 10 Sudoeste 22 Sudoeste 0 -- -- 66
2019-08-07 02:00:00 22.8 12 Sudoeste 23 Sudoeste 0 -- -- 62
2019-08-07 01:00:00 23.9 11 Sudoeste 25 Sudoeste 0 -- -- 57
2019-08-07 00:00:00 24.9 16 Sudoeste 28 Oeste 0 -- -- 52
2019-08-06 23:00:00 26 15 Oeste 32 Oeste 0 -- -- 46
2019-08-06 22:00:00 27.6 23 Oeste 32 Oeste 0 -- -- 41
2019-08-06 21:00:00 29.7 24 Oeste 35 Oeste 0 -- -- 34
2019-08-06 20:00:00 32.6 23 Oeste 35 Oeste 0 -- -- 30
2019-08-06 19:00:00 34.6 21 Oeste 35 Oeste 0 -- -- 25
2019-08-06 18:00:00 35.9 18 Sudoeste 35 Sudoeste 0 -- -- 24
2019-08-06 17:00:00 35.5 17 Sudoeste 28 Sudoeste 0 -- -- 26
2019-08-06 16:00:00 35.8 15 Sudoeste 32 Oeste 0 -- -- 27
2019-08-06 15:00:00 33.7 19 Oeste 29 Oeste 0 -- -- 29
2019-08-06 14:00:00 32.5 16 Oeste 27 Oeste 0 -- -- 31
2019-08-06 13:00:00 30.9 10 Sudoeste 22 Sudoeste 0 -- -- 35
2019-08-06 12:00:00 29 10 Oeste 19 Sur 0 -- -- 41
2019-08-06 11:00:00 25.9 5 Sudeste 14 Sur 0 -- -- 46
2019-08-06 10:00:00 23.5 5 Sur 10 Sur 0 -- -- 56
2019-08-06 09:00:00 20.7 2 Noroeste 6 Este 0 -- -- 64
2019-08-06 08:00:00 18.7 0 Calma 6 Sudoeste 0 -- -- 69
2019-08-06 07:00:00 18.4 7 Oeste 19 Oeste 0 -- -- 68
2019-08-06 06:00:00 19.6 13 Oeste 22 Oeste 0 -- -- 64
2019-08-06 05:00:00 19.8 6 Sudoeste 10 Sudoeste 0 -- -- 58
2019-08-06 04:00:00 20.9 6 Sudoeste 12 Oeste 0 -- -- 54
2019-08-06 03:00:00 23.1 5 Sudoeste 20 Sudoeste 0 -- -- 48
2019-08-06 02:00:00 24.6 10 Oeste 28 Norte 0 -- -- 41
2019-08-06 01:00:00 27.1 22 Norte 45 Noroeste 0 -- -- 37
2019-08-06 00:00:00 28.4 24 Oeste 37 Oeste 0 -- -- 32
2019-08-05 23:00:00 28.8 16 Oeste 27 Oeste 0 -- -- 32
2019-08-05 22:00:00 30.3 3 Oeste 12 Sudoeste 0 -- -- 21
2019-08-05 21:00:00 34 11 Oeste 18 Oeste 0 -- -- 18
2019-08-05 20:00:00 35.1 12 Oeste 23 Sudoeste 0 -- -- 15
2019-08-05 19:00:00 36.3 12 Sudoeste 26 Oeste 0 -- -- 15
2019-08-05 18:00:00 36.1 11 Sudoeste 27 Sudoeste 0 -- -- 15
2019-08-05 17:00:00 35.7 7 Sudeste 24 Oeste 0 -- -- 15
2019-08-05 16:00:00 35.3 17 Sudoeste 29 Sudoeste 0 -- -- 14
2019-08-05 15:00:00 34.9 12 Sudoeste 27 Oeste 0 -- -- 18
2019-08-05 14:00:00 32.7 13 Sudoeste 23 Sudoeste 0 -- -- 23
2019-08-05 13:00:00 29.8 12 Sur 22 Sur 0 -- -- 29
2019-08-05 12:00:00 28 8 Sur 18 Sudoeste 0 -- -- 37
2019-08-05 11:00:00 25.2 6 Sudoeste 13 Sudoeste 0 -- -- 51
2019-08-05 10:00:00 21.5 0 Calma 8 Oeste 0 -- -- 60
2019-08-05 09:00:00 19 3 Oeste 5 Sudoeste 0 -- -- 69
2019-08-05 08:00:00 16.3 0 Calma 4 Sur 0 -- -- 78
2019-08-05 07:00:00 15.7 2 Sur 4 Sudoeste 0 -- -- 78
2019-08-05 06:00:00 16.6 3 Sudoeste 9 Sudoeste 0 -- -- 75
2019-08-05 05:00:00 17.7 8 Sudoeste 18 Sudoeste 0 -- -- 72
2019-08-05 04:00:00 18.6 10 Sudoeste 14 Sudoeste 0 -- -- 69
2019-08-05 03:00:00 19.9 9 Sudoeste 14 Sudoeste 0 -- -- 64
2019-08-05 02:00:00 21.5 10 Sudoeste 28 Sudoeste 0 -- -- 58
2019-08-05 01:00:00 23.1 19 Sudoeste 33 Sudoeste 0 -- -- 51
2019-08-05 00:00:00 24.6 15 Oeste 26 Oeste 0 -- -- 43
2019-08-04 23:00:00 26.6 15 Oeste 28 Oeste 0 -- -- 37
2019-08-04 22:00:00 28.8 18 Oeste 33 Oeste 0 -- -- 33
2019-08-04 21:00:00 32.2 23 Oeste 34 Oeste 0 -- -- 27
2019-08-04 20:00:00 34.8 21 Oeste 32 Oeste 0 -- -- 23
2019-08-04 19:00:00 35.8 16 Oeste 37 Sudoeste 0 -- -- 20
2019-08-04 18:00:00 36.5 14 Oeste 33 Oeste 0 -- -- 21
2019-08-04 17:00:00 36.5 15 Sudoeste 31 Sudoeste 0 -- -- 21
2019-08-04 16:00:00 35.7 15 Oeste 30 Oeste 0 -- -- 24
2019-08-04 15:00:00 35 15 Oeste 28 Oeste 0 -- -- 27
2019-08-04 14:00:00 33.5 15 Sudoeste 25 Sudoeste 0 -- -- 30
2019-08-04 13:00:00 31.9 10 Sudoeste 21 Sudoeste 0 -- -- 33
2019-08-04 12:00:00 29.6 9 Sur 15 Sur 0 -- -- 40
2019-08-04 11:00:00 27.5 7 Sudoeste 14 Sudoeste 0 -- -- 45
2019-08-04 10:00:00 24.3 4 Sudoeste 12 Sudoeste 0 -- -- 54
2019-08-04 09:00:00 21.6 9 Sudoeste 17 Sudoeste 0 -- -- 63
2019-08-04 08:00:00 19.4 8 Sudoeste 12 Sudoeste 0 -- -- 69
2019-08-04 07:00:00 19.3 4 Oeste 10 Sudoeste 0 -- -- 63
2019-08-04 06:00:00 20.2 4 Sudoeste 9 Sudeste 0 -- -- 57
2019-08-04 05:00:00 22.1 9 Sudeste 12 Sudeste 0 -- -- 52
2019-08-04 04:00:00 23.2 3 Sudoeste 14 Oeste 0 -- -- 49
2019-08-04 03:00:00 24.2 6 Oeste 18 Oeste 0 -- -- 47
2019-08-04 02:00:00 25.3 10 Oeste 25 Sudoeste 0 -- -- 44
2019-08-04 01:00:00 26.8 12 Oeste 30 Oeste 0 -- -- 43
2019-08-04 00:00:00 27.2 15 Oeste 24 Sudoeste 0 -- -- 40
2019-08-03 23:00:00 28.1 11 Sudoeste 20 Oeste 0 -- -- 32
2019-08-03 22:00:00 30 0 Calma 15 Sudoeste 0 -- -- 21
2019-08-03 21:00:00 33.6 10 Sur 18 Sudoeste 0 -- -- 18
2019-08-03 20:00:00 35.8 13 Oeste 23 Oeste 0 -- -- 17
2019-08-03 19:00:00 36.7 11 Oeste 26 Oeste 0 -- -- 16
2019-08-03 18:00:00 35.9 9 Sudeste 26 Sudoeste 0 -- -- 17
2019-08-03 17:00:00 36.5 10 Sur 26 Sudoeste 0 -- -- 18
2019-08-03 16:00:00 36.3 15 Oeste 31 Oeste 0 -- -- 19
2019-08-03 15:00:00 34.8 8 Oeste 29 Sudoeste 0 -- -- 23
2019-08-03 14:00:00 33.9 13 Sudoeste 25 Oeste 0 -- -- 26
2019-08-03 13:00:00 32.1 14 Sudoeste 23 Oeste 0 -- -- 32
2019-08-03 12:00:00 30 6 Sudeste 14 Sudeste 0 -- -- 39
2019-08-03 11:00:00 27.3 5 Sur 9 Sudeste 0 -- -- 45
2019-08-03 10:00:00 24.9 3 Sur 7 Sudeste 0 -- -- 50
2019-08-03 09:00:00 22.5 3 Sudeste 9 Nordeste 0 -- -- 55
2019-08-03 08:00:00 19.8 6 Este 9 Nordeste 0 -- -- 60
2019-08-03 07:00:00 19.5 6 Nordeste 8 Este 0 -- -- 64
2019-08-03 06:00:00 20 5 Nordeste 15 Sudeste 0 -- -- 65
2019-08-03 05:00:00 20.5 7 Este 9 Nordeste 0 -- -- 64
2019-08-03 04:00:00 21.4 4 Sudeste 6 Sudeste 0 -- -- 60
2019-08-03 03:00:00 22.7 3 Sudoeste 15 Sudoeste 0 -- -- 57
2019-08-03 02:00:00 24.1 3 Oeste 15 Sudoeste 0 -- -- 51
2019-08-03 01:00:00 25.6 12 Sudoeste 26 Oeste 0 -- -- 46
2019-08-03 00:00:00 26.5 13 Sudoeste 20 Oeste 0 -- -- 31
2019-08-02 23:00:00 28.7 0 Calma 4 Norte 0 -- -- 19
2019-08-02 22:00:00 29.9 3 Noroeste 10 Sudoeste 0 -- -- 18
2019-08-02 21:00:00 34.3 9 Sudoeste 17 Oeste 0 -- -- 14
2019-08-02 20:00:00 35.8 8 Oeste 25 Sur 0 -- -- 13
2019-08-02 19:00:00 36.2 12 Sudoeste 21 Sudoeste 0 -- -- 13
2019-08-02 18:00:00 36.5 10 Sudoeste 23 Sudoeste 0 -- -- 13
2019-08-02 17:00:00 36.1 14 Oeste 28 Sudoeste 0 -- -- 15
2019-08-02 16:00:00 35.2 13 Sudoeste 21 Sur 0 -- -- 16
2019-08-02 15:00:00 33.8 11 Sur 22 Sudoeste 0 -- -- 17
2019-08-02 14:00:00 32.2 10 Sudeste 19 Sur 0 -- -- 20
2019-08-02 13:00:00 29.9 8 Sudeste 18 Sudoeste 0 -- -- 28
2019-08-02 12:00:00 28.2 7 Sur 14 Sur 0 -- -- 35
2019-08-02 11:00:00 24.3 3 Sudeste 8 Este 0 -- -- 45
2019-08-02 10:00:00 21.4 3 Este 8 Sur 0 -- -- 53
2019-08-02 09:00:00 18.5 4 Sudoeste 7 Sudoeste 0 -- -- 62
2019-08-02 08:00:00 16.2 3 Nordeste 8 Oeste 0 -- -- 67
2019-08-02 07:00:00 15.6 4 Oeste 10 Oeste 0 -- -- 70
2019-08-02 06:00:00 16.6 6 Sudoeste 15 Sudoeste 0 -- -- 65
2019-08-02 05:00:00 17.6 12 Oeste 15 Sudoeste 0 -- -- 61
2019-08-02 04:00:00 19.1 4 Sudoeste 10 Sur 0 -- -- 53
2019-08-02 03:00:00 21 3 Sudoeste 18 Sudoeste 0 -- -- 45
2019-08-02 02:00:00 23.2 5 Sudoeste 27 Sudoeste 0 -- -- 36
2019-08-02 01:00:00 24.5 4 Sur 22 Oeste 0 -- -- 31
2019-08-02 00:00:00 25.3 16 Oeste 24 Sudoeste 0 -- -- 28
2019-08-01 23:00:00 27.2 17 Oeste 28 Oeste 0 -- -- 26
2019-08-01 22:00:00 29 19 Oeste 36 Oeste 0 -- -- 25
2019-08-01 21:00:00 32.4 20 Oeste 33 Oeste 0 -- -- 22
2019-08-01 20:00:00 34.6 20 Oeste 31 Oeste 0 -- -- 18
2019-08-01 19:00:00 35.5 16 Oeste 37 Sudoeste 0 -- -- 17
2019-08-01 18:00:00 35 13 Oeste 37 Oeste 0 -- -- 19
2019-08-01 17:00:00 34.6 17 Noroeste 35 Noroeste 0 -- -- 19
2019-08-01 16:00:00 34.3 16 Oeste 34 Oeste 0 -- -- 19
2019-08-01 15:00:00 34.4 10 Sur 26 Sudoeste 0 -- -- 21
2019-08-01 14:00:00 33.3 15 Sur 32 Oeste 0 -- -- 24
2019-08-01 13:00:00 32.1 12 Oeste 21 Oeste 0 -- -- 27
2019-08-01 12:00:00 28.9 6 Norte 20 Este 0 -- -- 32
2019-08-01 11:00:00 27.6 8 Sudeste 16 Sudeste 0 -- -- 34
2019-08-01 10:00:00 24.5 3 Sudeste 9 Sur 0 -- -- 39
2019-08-01 09:00:00 22.5 2 Sudoeste 6 Este 0 -- -- 43
2019-08-01 08:00:00 19.6 4 Este 11 Este 0 -- -- 49
2019-08-01 07:00:00 19 4 Sudeste 6 Sudeste 0 -- -- 48
2019-08-01 06:00:00 19.3 6 Sudeste 8 Sudeste 0 -- -- 46
2019-08-01 05:00:00 20.9 3 Sur 13 Sudoeste 0 -- -- 44
2019-08-01 04:00:00 22.4 5 Oeste 11 Sudoeste 0 -- -- 40
2019-08-01 03:00:00 24.5 4 Oeste 13 Noroeste 0 -- -- 35
2019-08-01 02:00:00 24.8 4 Sudoeste 21 Noroeste 0 -- -- 35
2019-08-01 01:00:00 27 14 Noroeste 32 Noroeste 0 -- -- 31
2019-08-01 00:00:00 27.3 19 Norte 28 Norte 0 -- -- 32
2019-07-31 23:00:00 28.3 23 Norte 35 Noroeste 0 -- -- 31
2019-07-31 22:00:00 30.1 23 Noroeste 33 Noroeste 0 -- -- 27
2019-07-31 21:00:00 31.7 11 Noroeste 17 Noroeste 0 -- -- 16
2019-07-31 20:00:00 33.8 8 Sudoeste 24 Sudoeste 0 -- -- 12
2019-07-31 19:00:00 34.8 14 Sur 32 Oeste 0 -- -- 12
2019-07-31 18:00:00 36.1 18 Sudoeste 29 Sur 0 -- -- 12
2019-07-31 17:00:00 35.4 9 Sudeste 30 Sudoeste 0 -- -- 13
2019-07-31 16:00:00 34.9 12 Sudoeste 32 Sudoeste 0 -- -- 14
2019-07-31 15:00:00 34.2 15 Sudoeste 40 Sudoeste 0 -- -- 15
2019-07-31 14:00:00 32.8 10 Sudeste 22 Este 0 -- -- 24
2019-07-31 13:00:00 31.2 9 Sudeste 33 Este 0 -- -- 27
2019-07-31 12:00:00 29.4 16 Este 34 Este 0 -- -- 35
2019-07-31 11:00:00 27.6 23 Este 44 Este 0 -- -- 36
2019-07-31 10:00:00 25.6 27 Este 44 Este 0 -- -- 42
2019-07-31 09:00:00 23.3 24 Este 35 Nordeste 0 -- -- 43
2019-07-31 08:00:00 22 18 Nordeste 32 Nordeste 0 -- -- 42
2019-07-31 07:00:00 21.6 18 Nordeste 27 Nordeste 0 -- -- 36
2019-07-31 06:00:00 22 15 Nordeste 32 Norte 0 -- -- 33
2019-07-31 05:00:00 22.7 19 Norte 33 Norte 0 -- -- 31
2019-07-31 04:00:00 22.5 24 Norte 33 Norte 0 -- -- 31
2019-07-31 03:00:00 23.2 25 Norte 42 Norte 0 -- -- 28
2019-07-31 02:00:00 24 28 Norte 41 Norte 0 -- -- 26
2019-07-31 01:00:00 24.5 32 Norte 44 Norte 0 -- -- 25
2019-07-31 00:00:00 24.8 28 Norte 39 Noroeste 0 -- -- 24
2019-07-30 23:00:00 24.9 22 Norte 32 Norte 0 -- -- 25
2019-07-30 22:00:00 25.9 16 Norte 25 Norte 0 -- -- 24
2019-07-30 21:00:00 29 12 Norte 26 Norte 0 -- -- 20
2019-07-30 20:00:00 30.2 15 Norte 28 Norte 0 -- -- 18
2019-07-30 19:00:00 30.7 14 Norte 28 Norte 0 -- -- 18
2019-07-30 18:00:00 30.9 16 Norte 27 Noroeste 0 -- -- 17
2019-07-30 17:00:00 29.9 17 Norte 30 Norte 0 -- -- 21
2019-07-30 16:00:00 29.4 16 Noroeste 30 Norte 0 -- -- 21
2019-07-30 15:00:00 28.3 16 Norte 28 Norte 0 -- -- 24
2019-07-30 14:00:00 26.7 21 Norte 34 Norte 0 -- -- 28
2019-07-30 13:00:00 25.1 24 Norte 41 Norte 0 -- -- 31
2019-07-30 12:00:00 23.1 28 Norte 50 Norte 0 -- -- 37
2019-07-30 11:00:00 20.9 37 Norte 59 Norte 0 -- -- 42
2019-07-30 10:00:00 18.5 41 Norte 63 Norte 0 -- -- 48
2019-07-30 09:00:00 17.1 46 Norte 64 Norte 0 -- -- 50
2019-07-30 08:00:00 16.5 46 Norte 66 Norte 0 -- -- 49
2019-07-30 07:00:00 16.5 52 Norte 68 Norte 0 -- -- 49
2019-07-30 06:00:00 16.6 40 Norte 53 Norte 0 -- -- 50
2019-07-30 05:00:00 17.6 32 Norte 47 Noroeste 0 -- -- 47
2019-07-30 04:00:00 17.7 24 Norte 42 Norte 0 -- -- 49
2019-07-30 03:00:00 18.2 31 Norte 51 Norte 0 -- -- 50
2019-07-30 02:00:00 18.9 32 Norte 51 Norte 0 -- -- 48
2019-07-30 01:00:00 20.2 36 Norte 48 Norte 0 -- -- 43
2019-07-30 00:00:00 21.5 36 Norte 48 Norte 0 -- -- 38
2019-07-29 23:00:00 22.9 35 Norte 47 Norte 0 -- -- 35
2019-07-29 22:00:00 24.4 26 Noroeste 39 Norte 0 -- -- 34
2019-07-29 21:00:00 27.3 24 Noroeste 44 Noroeste 0 -- -- 26
2019-07-29 20:00:00 29.1 19 Noroeste 38 Noroeste 0 -- -- 23
2019-07-29 19:00:00 30.6 18 Noroeste 39 Noroeste 0 -- -- 25
2019-07-29 18:00:00 30.5 17 Noroeste 39 Noroeste 0 -- -- 27
2019-07-29 17:00:00 31 15 Noroeste 45 Oeste 0 -- -- 32
2019-07-29 16:00:00 31.7 16 Oeste 38 Sudoeste 0 -- -- 30
2019-07-29 15:00:00 30.8 17 Oeste 30 Sudoeste 0 -- -- 29
2019-07-29 14:00:00 29.7 14 Sudoeste 30 Sudoeste 0 -- -- 29
2019-07-29 13:00:00 28.4 15 Sudoeste 27 Oeste 0 -- -- 32
2019-07-29 12:00:00 27.3 19 Oeste 29 Oeste 0 -- -- 37
2019-07-29 11:00:00 24.7 15 Noroeste 24 Noroeste 0 -- -- 44
2019-07-29 10:00:00 22.2 8 Sudoeste 17 Sudoeste 0 -- -- 44
2019-07-29 09:00:00 18.3 6 Sudoeste 9 Sudoeste 0 -- -- 54
2019-07-29 08:00:00 15.7 3 Sur 6 Sur 0 -- -- 65
2019-07-29 07:00:00 14.9 4 Sudoeste 9 Sur 0 -- -- 68
2019-07-29 06:00:00 16 3 Sudoeste 16 Sudoeste 0 -- -- 64
2019-07-29 05:00:00 17.6 9 Sudoeste 25 Sudoeste 0 -- -- 63
2019-07-29 04:00:00 19.1 14 Sudoeste 28 Oeste 0 -- -- 60
2019-07-29 03:00:00 20.9 21 Sudoeste 28 Sudoeste 0 -- -- 50
2019-07-29 02:00:00 22.4 14 Sudoeste 32 Oeste 0 -- -- 46
2019-07-29 01:00:00 23.8 23 Oeste 41 Oeste 0 -- -- 42
2019-07-29 00:00:00 25.5 24 Oeste 39 Oeste 0 -- -- 42
2019-07-28 23:00:00 26.3 14 Oeste 24 Sudoeste 0 -- -- 36
2019-07-28 22:00:00 27.9 4 Oeste 17 Oeste 0 -- -- 27
2019-07-28 21:00:00 31.6 11 Oeste 19 Oeste 0 -- -- 25
2019-07-28 20:00:00 32.1 12 Oeste 32 Oeste 0 -- -- 23
2019-07-28 19:00:00 33 12 Sudoeste 29 Oeste 0 -- -- 22
2019-07-28 18:00:00 31.9 7 Nordeste 33 Oeste 0 -- -- 28
2019-07-28 17:00:00 32.6 9 Sudoeste 30 Oeste 0 -- -- 28
2019-07-28 16:00:00 31.9 8 Noroeste 27 Oeste 0 -- -- 30
2019-07-28 15:00:00 29.6 8 Oeste 21 Sudoeste 0 -- -- 34
2019-07-28 14:00:00 28.7 4 Noroeste 16 Sur 0 -- -- 38
2019-07-28 13:00:00 27.9 10 Sur 18 Sudoeste 0 -- -- 39
2019-07-28 12:00:00 26.9 12 Sudeste 26 Sudeste 0 -- -- 42
2019-07-28 11:00:00 25.1 11 Este 21 Este 0 -- -- 46
2019-07-28 10:00:00 23 10 Este 19 Este 0 -- -- 53
2019-07-28 09:00:00 20.8 6 Este 14 Nordeste 0 -- -- 58
2019-07-28 08:00:00 19.7 12 Norte 27 Norte 0 -- -- 60
2019-07-28 07:00:00 19.4 12 Nordeste 39 Norte 0 -- -- 60
2019-07-28 06:00:00 20 28 Norte 40 Norte 0 -- -- 58
2019-07-28 05:00:00 20.7 28 Norte 39 Norte 0 -- -- 57
2019-07-28 04:00:00 21 26 Norte 36 Noroeste 0 -- -- 57
2019-07-28 03:00:00 21.3 22 Norte 36 Noroeste 0 -- -- 58
2019-07-28 02:00:00 21.8 21 Norte 33 Noroeste 0 -- -- 58
2019-07-28 01:00:00 20.6 5 Sudoeste 22 Oeste 0 -- -- 60
2019-07-28 00:00:00 21.6 14 Oeste 24 Oeste 0 -- -- 56
2019-07-27 23:00:00 22.6 17 Oeste 30 Oeste 0 -- -- 50
2019-07-26 12:00:00 -- -- -- -- -- -- -- -- --
2019-07-26 11:00:00 23 14 Norte 36 Norte 0 -- -- 48
2019-07-26 10:00:00 21.7 15 Noroeste 31 Noroeste 0 -- -- 53
2019-07-26 09:00:00 20.2 11 Norte 23 Noroeste 0 -- -- 57
2019-07-26 08:00:00 18.1 7 Oeste 18 Sudoeste 0 -- -- 66
2019-07-26 07:00:00 17 9 Oeste 24 Sudoeste 0 -- -- 75
2019-07-26 06:00:00 17.5 13 Sudoeste 29 Oeste 0 -- -- 73
2019-07-26 05:00:00 18.9 14 Oeste 27 Oeste 0 -- -- 70
2019-07-26 04:00:00 20.6 14 Sudoeste 23 Oeste 0 -- -- 69
2019-07-26 03:00:00 21.6 14 Oeste 31 Oeste 0 -- -- 67
2019-07-26 02:00:00 22.6 20 Oeste 32 Oeste 0 -- -- 65
2019-07-26 01:00:00 23.3 17 Oeste 38 Oeste 0 -- -- 62
2019-07-26 00:00:00 24.3 27 Oeste 41 Oeste 0 -- -- 59
2019-07-25 23:00:00 25.9 26 Oeste 50 Oeste 0 -- -- 52
2019-07-25 22:00:00 27.9 22 Oeste 38 Oeste 0 -- -- 46
2019-07-25 21:00:00 30.1 24 Oeste 34 Oeste 0 -- -- 32
2019-07-25 20:00:00 32.6 18 Oeste 39 Oeste 0 -- -- 29
2019-07-25 19:00:00 35.5 19 Sudoeste 41 Oeste 0 -- -- 22
2019-07-25 18:00:00 34.7 21 Oeste 36 Sudoeste 0 -- -- 26
2019-07-25 17:00:00 35.2 18 Sudoeste 36 Sudoeste 0 -- -- 25
2019-07-25 16:00:00 35.4 17 Sudoeste 34 Sudoeste 0 -- -- 26
2019-07-25 15:00:00 34.2 13 Oeste 33 Oeste 0 -- -- 29
2019-07-25 14:00:00 32.9 14 Sudoeste 27 Sudoeste 0 -- -- 32
2019-07-25 13:00:00 31.2 14 Sudoeste 27 Oeste 0 -- -- 35
2019-07-25 12:00:00 29.5 13 Sudoeste 23 Sudoeste 0 -- -- 39
2019-07-25 11:00:00 28 9 Sudoeste 24 Sudoeste 0 -- -- 43
2019-07-25 10:00:00 25.9 13 Sudoeste 22 Oeste 0 -- -- 47
2019-07-25 09:00:00 23.5 13 Sudoeste 20 Sudoeste 0 -- -- 50
2019-07-25 08:00:00 21.5 3 Sudeste 14 Oeste 0 -- -- 51
2019-07-25 07:00:00 20.7 11 Oeste 13 Oeste 0 -- -- 53
2019-07-25 06:00:00 21.7 6 Sudoeste 10 Oeste 0 -- -- 46
2019-07-25 05:00:00 22.5 3 Sudoeste 10 Oeste 0 -- -- 44
2019-07-25 04:00:00 24.2 6 Sur 9 Sur 0 -- -- 40
2019-07-25 03:00:00 25.5 6 Sudeste 10 Sudeste 0 -- -- 38
2019-07-25 02:00:00 27 4 Sudeste 31 Oeste 0 -- -- 36
2019-07-25 01:00:00 28.9 18 Oeste 42 Oeste 0 -- -- 32
2019-07-25 00:00:00 30 30 Noroeste 44 Oeste 0 -- -- 31
2019-07-24 23:00:00 31.5 23 Oeste 36 Oeste 0 -- -- 26
2019-07-24 22:00:00 32.9 18 Oeste 35 Oeste 0 -- -- 25
2019-07-24 21:00:00 36 15 Sudoeste 31 Sudoeste 0 -- -- 21
2019-07-24 20:00:00 37.2 15 Sur 29 Sudoeste 0 -- -- 19
2019-07-24 19:00:00 38.4 23 Sudoeste 38 Sur 0 -- -- 19
2019-07-24 18:00:00 38.5 17 Sur 38 Sur 0 -- -- 21
2019-07-24 17:00:00 38.5 13 Sur 33 Sudoeste 0 -- -- 21
2019-07-24 16:00:00 37.8 14 Sur 33 Sudoeste 0 -- -- 22
2019-07-24 15:00:00 37.6 10 Sudoeste 28 Sur 0 -- -- 24
2019-07-24 14:00:00 36.7 13 Sudoeste 23 Oeste 0 -- -- 25
2019-07-24 13:00:00 35 8 Sudeste 19 Sudoeste 0 -- -- 27
2019-07-24 12:00:00 33.1 8 Oeste 17 Sudeste 0 -- -- 30
2019-07-24 11:00:00 31.8 5 Sudeste 14 Sudeste 0 -- -- 35
2019-07-24 10:00:00 29.2 7 Sudeste 14 Este 0 -- -- 40
2019-07-24 09:00:00 26.8 8 Nordeste 13 Nordeste 0 -- -- 45
2019-07-24 08:00:00 24.7 5 Nordeste 10 Nordeste 0 -- -- 49
2019-07-24 07:00:00 24.3 5 Nordeste 13 Nordeste 0 -- -- 49
2019-07-24 06:00:00 24.9 8 Nordeste 16 Nordeste 0 -- -- 48
2019-07-24 05:00:00 25.1 8 Nordeste 17 Nordeste 0 -- -- 47
2019-07-24 04:00:00 25.5 9 Nordeste 19 Nordeste 0 -- -- 47
2019-07-24 03:00:00 26.8 9 Nordeste 17 Nordeste 0 -- -- 43
2019-07-24 02:00:00 27.2 6 Este 19 Este 0 -- -- 40
2019-07-24 01:00:00 27.8 6 Sudoeste 14 Oeste 0 -- -- 41
2019-07-24 00:00:00 29.6 4 Este 30 Oeste 0 -- -- 39